Terminal Aerodrome Forecast
Issued by NWS

Home | Current Version | Previous Version | Text Only | Print | Product List | Glossary On
Versions: 1 2 3 4 5 6 7 8 9 10 11 12 13 14 15 16 17 18 19 20 21 22
000
FTUS43 KSGF 231900 AAA
TAFJLN
TAF AMD
KJLN 231947Z 2320/2418 20008KT P6SM OVC025
     FM232200 24011KT 5SM -SHRA BR VCTS SCT007 OVC015CB
     FM240100 30022G33KT 5SM -RA BR OVC008
     FM240400 30022G30KT 3SM -RA OVC009 PROB30 2406/2409 -SHSN
      OVC007
     FM240900 28018G28KT P6SM OVC015
     FM241500 27018G28KT P6SM SCT015=

USA.gov is the U.S. government's official web portal to all federal, state and local government web resources and services.